createdAt,value
2023-02-24T00:00:02.667Z,0.00
2023-02-24T00:01:02.445Z,0.00
2023-02-24T00:02:03.090Z,0.00
2023-02-24T00:03:03.829Z,0.00
2023-02-24T00:04:03.484Z,0.00
2023-02-24T00:05:03.307Z,0.00
2023-02-24T00:06:03.461Z,0.00
2023-02-24T00:07:03.338Z,0.00
2023-02-24T00:08:03.484Z,0.00
2023-02-24T00:09:03.328Z,0.00
2023-02-24T00:10:03.579Z,0.00
2023-02-24T00:11:03.922Z,0.00
2023-02-24T00:12:03.377Z,0.00
2023-02-24T00:13:03.010Z,0.00
2023-02-24T00:14:03.245Z,0.00
2023-02-24T00:15:03.117Z,0.00
2023-02-24T00:16:03.322Z,0.00
2023-02-24T00:17:03.706Z,0.00
2023-02-24T00:18:03.122Z,0.00
2023-02-24T00:19:03.608Z,0.00
2023-02-24T00:20:03.347Z,0.00
2023-02-24T00:21:03.307Z,0.00
2023-02-24T00:22:03.649Z,0.00
2023-02-24T00:23:03.237Z,0.00
2023-02-24T00:24:03.276Z,0.00
2023-02-24T00:25:03.758Z,0.00
2023-02-24T00:26:03.309Z,0.00
2023-02-24T00:27:03.201Z,0.00
2023-02-24T00:28:02.933Z,0.00
2023-02-24T00:29:03.068Z,0.00
2023-02-24T00:30:02.947Z,0.00
2023-02-24T00:31:02.958Z,0.00
2023-02-24T00:32:03.701Z,0.00
2023-02-24T00:33:03.333Z,0.00
2023-02-24T00:34:03.597Z,0.00
2023-02-24T00:35:03.466Z,0.00
2023-02-24T00:36:03.095Z,0.00
2023-02-24T00:37:02.820Z,0.00
2023-02-24T00:38:02.343Z,0.00
2023-02-24T00:39:02.795Z,0.00
2023-02-24T00:40:02.859Z,0.00
2023-02-24T00:41:02.941Z,0.00
2023-02-24T00:42:02.485Z,0.00
2023-02-24T00:43:02.903Z,0.00
2023-02-24T00:44:02.784Z,0.00
2023-02-24T00:45:02.625Z,0.00
2023-02-24T00:46:02.999Z,0.00
2023-02-24T00:47:03.069Z,0.00
2023-02-24T00:48:02.818Z,0.00
2023-02-24T00:49:02.993Z,0.00
2023-02-24T00:50:03.213Z,0.00
2023-02-24T00:51:02.888Z,0.00
2023-02-24T00:52:03.378Z,0.00
2023-02-24T00:53:03.460Z,0.00
2023-02-24T00:54:03.170Z,0.00
2023-02-24T00:55:03.056Z,0.00
2023-02-24T00:56:02.950Z,0.00
2023-02-24T00:57:03.803Z,0.00
2023-02-24T00:58:03.476Z,0.00
2023-02-24T00:59:03.718Z,0.00
2023-02-24T01:00:03.351Z,0.00
2023-02-24T01:01:03.288Z,0.00
2023-02-24T01:02:03.268Z,0.00
2023-02-24T01:03:02.783Z,0.00
2023-02-24T01:04:03.185Z,0.00
2023-02-24T01:05:02.835Z,0.00
2023-02-24T01:06:03.236Z,0.00
2023-02-24T01:07:03.152Z,0.00
2023-02-24T01:08:03.544Z,0.00
2023-02-24T01:09:03.200Z,0.00
2023-02-24T01:10:03.076Z,0.00
2023-02-24T01:11:03.449Z,0.00
2023-02-24T01:12:03.551Z,0.00
2023-02-24T01:13:03.491Z,0.00
2023-02-24T01:14:03.230Z,0.00
2023-02-24T01:15:03.146Z,0.00
2023-02-24T01:16:03.593Z,0.00
2023-02-24T01:17:02.681Z,0.00
2023-02-24T01:18:02.766Z,0.00
2023-02-24T01:19:02.667Z,0.00
2023-02-24T01:20:02.300Z,0.00
2023-02-24T01:21:02.302Z,0.00
2023-02-24T01:22:03.138Z,0.00
2023-02-24T01:23:03.203Z,0.00
2023-02-24T01:24:02.840Z,0.00
2023-02-24T01:25:03.147Z,0.00
2023-02-24T01:26:02.797Z,0.00
2023-02-24T01:27:03.096Z,0.00
2023-02-24T01:28:03.224Z,0.00
2023-02-24T01:29:03.739Z,0.00
2023-02-24T01:30:03.640Z,0.00
2023-02-24T01:31:03.397Z,0.00
2023-02-24T01:32:03.501Z,0.00
2023-02-24T01:33:02.982Z,0.00
2023-02-24T01:34:03.233Z,0.00
2023-02-24T01:35:03.214Z,0.00
2023-02-24T01:36:02.789Z,0.00
2023-02-24T01:37:03.250Z,0.00
2023-02-24T01:38:03.335Z,0.00
2023-02-24T01:39:03.465Z,0.00
2023-02-24T01:40:03.393Z,0.00
2023-02-24T01:41:03.397Z,0.00
2023-02-24T01:42:02.659Z,0.00
2023-02-24T01:43:02.968Z,0.00
2023-02-24T01:44:03.034Z,0.00
2023-02-24T01:45:02.850Z,0.00
2023-02-24T01:46:02.551Z,0.00
2023-02-24T01:47:03.288Z,0.00
2023-02-24T01:48:02.974Z,0.00
2023-02-24T01:49:03.355Z,0.00
2023-02-24T01:50:02.823Z,0.00
2023-02-24T01:51:03.165Z,0.00
2023-02-24T01:52:02.761Z,0.00
2023-02-24T01:53:02.430Z,0.00
2023-02-24T01:54:02.376Z,0.00
2023-02-24T01:55:02.731Z,0.00
2023-02-24T01:56:02.717Z,0.00
2023-02-24T01:57:02.856Z,0.00
2023-02-24T01:58:03.154Z,0.00
2023-02-24T01:59:03.109Z,0.00
2023-02-24T02:00:03.388Z,0.00
2023-02-24T02:01:03.307Z,0.00
2023-02-24T02:02:02.565Z,0.00
2023-02-24T02:03:03.052Z,0.00
2023-02-24T02:04:02.798Z,0.00
2023-02-24T02:05:02.870Z,0.00
2023-02-24T02:06:02.727Z,0.00
2023-02-24T02:07:03.157Z,0.00
2023-02-24T02:08:02.902Z,0.00
2023-02-24T02:09:03.424Z,0.00
2023-02-24T02:10:02.783Z,0.00
2023-02-24T02:11:02.790Z,0.00
2023-02-24T02:12:02.350Z,0.00
2023-02-24T02:13:02.141Z,0.00
2023-02-24T02:14:02.775Z,0.00
2023-02-24T02:15:02.325Z,0.00
2023-02-24T02:16:02.373Z,0.00
2023-02-24T02:17:02.918Z,0.00
2023-02-24T02:18:02.914Z,0.00
2023-02-24T02:19:02.847Z,0.00
2023-02-24T02:20:02.832Z,0.00
2023-02-24T02:21:03.263Z,0.00
2023-02-24T02:22:03.087Z,0.00
2023-02-24T02:23:03.550Z,0.00
2023-02-24T02:24:03.424Z,0.00
2023-02-24T02:25:03.107Z,0.00
2023-02-24T02:26:02.983Z,0.00
2023-02-24T02:27:02.416Z,0.00
2023-02-24T02:28:02.582Z,0.00
2023-02-24T02:29:02.512Z,0.00
2023-02-24T02:30:02.511Z,0.00
2023-02-24T02:31:02.588Z,0.00
2023-02-24T02:32:02.744Z,0.00
2023-02-24T02:33:03.024Z,0.00
2023-02-24T02:34:02.753Z,0.00
2023-02-24T02:35:02.560Z,0.00
2023-02-24T02:36:02.794Z,0.00
2023-02-24T02:37:03.095Z,0.00
2023-02-24T02:38:03.413Z,0.00
2023-02-24T02:39:02.841Z,0.00
2023-02-24T02:40:03.185Z,0.00
2023-02-24T02:41:03.197Z,0.00
2023-02-24T02:42:02.860Z,0.00
2023-02-24T02:43:02.419Z,0.00
2023-02-24T02:44:02.511Z,0.00
2023-02-24T02:45:02.434Z,0.00
2023-02-24T02:46:02.705Z,0.00
2023-02-24T02:47:02.593Z,0.00
2023-02-24T02:48:02.475Z,0.00
2023-02-24T02:49:02.675Z,0.00
2023-02-24T02:50:02.595Z,0.00
2023-02-24T02:51:02.401Z,0.00
2023-02-24T02:52:03.000Z,0.00
2023-02-24T02:53:03.138Z,0.00
2023-02-24T02:54:03.541Z,0.00
2023-02-24T02:55:03.186Z,0.00
2023-02-24T02:56:03.215Z,0.00
2023-02-24T02:57:02.398Z,0.00
2023-02-24T02:58:02.258Z,0.00
2023-02-24T02:59:02.127Z,0.00
2023-02-24T03:00:02.484Z,0.00
2023-02-24T03:01:02.407Z,0.00
2023-02-24T03:02:03.045Z,0.00
2023-02-24T03:03:02.869Z,0.00
2023-02-24T03:04:02.849Z,0.00
2023-02-24T03:05:03.268Z,0.00
2023-02-24T03:06:02.866Z,0.00
2023-02-24T03:07:03.098Z,0.00
2023-02-24T03:08:02.637Z,0.00
2023-02-24T03:09:02.868Z,0.00
2023-02-24T03:10:02.775Z,0.00
2023-02-24T03:11:03.178Z,0.00
2023-02-24T03:12:03.196Z,0.00
2023-02-24T03:13:02.930Z,0.00
2023-02-24T03:14:02.882Z,0.00
2023-02-24T03:15:02.824Z,0.00
2023-02-24T03:16:03.238Z,0.00
2023-02-24T03:17:02.415Z,0.00
2023-02-24T03:18:02.892Z,0.00
2023-02-24T03:19:02.997Z,0.00
2023-02-24T03:20:02.570Z,0.00
2023-02-24T03:21:02.925Z,0.00
2023-02-24T03:22:03.093Z,0.00
2023-02-24T03:23:02.850Z,0.00
2023-02-24T03:24:03.132Z,0.00
2023-02-24T03:25:03.038Z,0.00
2023-02-24T03:26:02.697Z,0.00
2023-02-24T03:27:02.355Z,0.00
2023-02-24T03:28:02.660Z,0.00
2023-02-24T03:29:02.524Z,0.00
2023-02-24T03:30:02.549Z,0.00
2023-02-24T03:31:02.504Z,0.00
2023-02-24T03:32:03.146Z,0.00
2023-02-24T03:33:02.743Z,0.00
2023-02-24T03:34:02.410Z,0.00
2023-02-24T03:35:02.608Z,0.00
2023-02-24T03:36:02.643Z,0.00
2023-02-24T03:37:03.005Z,0.00
2023-02-24T03:38:02.770Z,0.00
2023-02-24T03:39:03.235Z,0.00
2023-02-24T03:40:03.320Z,0.00
2023-02-24T03:41:03.296Z,0.00
2023-02-24T03:42:03.243Z,0.00
2023-02-24T03:43:02.882Z,0.00
2023-02-24T03:44:03.149Z,0.00
2023-02-24T03:45:03.018Z,0.00
2023-02-24T03:46:02.964Z,0.00
2023-02-24T03:47:02.399Z,0.00
2023-02-24T03:48:02.742Z,0.00
2023-02-24T03:49:02.935Z,0.00
2023-02-24T03:50:02.458Z,0.00
2023-02-24T03:51:02.485Z,0.00
2023-02-24T03:52:03.453Z,0.00
2023-02-24T03:53:03.283Z,0.00
2023-02-24T03:54:03.288Z,0.00
2023-02-24T03:55:03.254Z,0.00
2023-02-24T03:56:02.905Z,0.00
2023-02-24T03:57:02.899Z,0.00
2023-02-24T03:58:03.073Z,0.00
2023-02-24T03:59:02.943Z,0.00
2023-02-24T04:00:03.073Z,0.00
2023-02-24T04:01:03.164Z,0.00
2023-02-24T04:02:02.431Z,0.00
2023-02-24T04:03:02.549Z,0.00
2023-02-24T04:04:02.221Z,0.00
2023-02-24T04:05:02.720Z,0.00
2023-02-24T04:06:02.313Z,0.00
2023-02-24T04:07:02.639Z,0.00
2023-02-24T04:08:02.854Z,0.00
2023-02-24T04:09:02.445Z,0.00
2023-02-24T04:10:02.482Z,0.00
2023-02-24T04:11:02.905Z,0.00
2023-02-24T04:12:02.113Z,0.00
2023-02-24T04:13:02.261Z,0.00
2023-02-24T04:14:02.024Z,0.00
2023-02-24T04:15:01.933Z,0.00
2023-02-24T04:16:02.101Z,0.00
2023-02-24T04:17:02.120Z,0.00
2023-02-24T04:18:02.645Z,0.00
2023-02-24T04:19:02.080Z,0.00
2023-02-24T04:20:02.165Z,0.00
2023-02-24T04:21:02.002Z,0.00
2023-02-24T04:22:02.259Z,0.00
2023-02-24T04:23:02.480Z,0.00
2023-02-24T04:24:02.475Z,0.00
2023-02-24T04:25:02.298Z,0.00
2023-02-24T04:26:02.054Z,0.00
2023-02-24T04:27:03.083Z,0.00
2023-02-24T04:28:02.802Z,0.00
2023-02-24T04:29:02.804Z,0.00
2023-02-24T04:30:02.703Z,0.00
2023-02-24T04:31:02.685Z,0.00
2023-02-24T04:32:02.343Z,0.00
2023-02-24T04:33:02.640Z,0.00
2023-02-24T04:34:02.096Z,0.00
2023-02-24T04:35:02.196Z,0.00
2023-02-24T04:36:02.427Z,0.00
2023-02-24T04:37:02.268Z,0.00
2023-02-24T04:38:02.747Z,0.00
2023-02-24T04:39:02.335Z,0.00
2023-02-24T04:40:02.523Z,0.00
2023-02-24T04:41:02.754Z,0.00
2023-02-24T04:42:02.224Z,0.00
2023-02-24T04:43:02.604Z,0.00
2023-02-24T04:44:02.576Z,0.00
2023-02-24T04:45:02.898Z,0.00
2023-02-24T04:46:02.709Z,0.00
2023-02-24T04:47:02.634Z,0.00
2023-02-24T04:48:02.678Z,0.00
2023-02-24T04:49:03.041Z,0.00
2023-02-24T04:50:02.439Z,0.00
2023-02-24T04:51:02.809Z,0.00
2023-02-24T04:52:02.947Z,0.00
2023-02-24T04:53:02.961Z,0.00
2023-02-24T04:54:03.046Z,0.00
2023-02-24T04:55:02.635Z,0.00
2023-02-24T04:56:02.696Z,0.00
2023-02-24T04:57:02.355Z,0.00
2023-02-24T04:58:02.539Z,0.00
2023-02-24T04:59:02.105Z,0.00
2023-02-24T05:00:01.903Z,0.00
2023-02-24T05:01:02.252Z,0.00
2023-02-24T05:02:02.432Z,0.00
2023-02-24T05:03:02.443Z,0.00
2023-02-24T05:04:02.059Z,0.00
2023-02-24T05:05:02.121Z,0.00
2023-02-24T05:06:02.610Z,0.00
2023-02-24T05:07:02.982Z,0.00
2023-02-24T05:08:02.742Z,0.00
2023-02-24T05:09:02.651Z,0.00
2023-02-24T05:10:02.978Z,0.00
2023-02-24T05:11:03.092Z,0.00
2023-02-24T05:12:02.119Z,0.00
2023-02-24T05:13:02.564Z,0.00
2023-02-24T05:14:02.134Z,0.00
2023-02-24T05:15:01.939Z,0.00
2023-02-24T05:16:02.458Z,0.00
2023-02-24T05:17:02.793Z,0.00
2023-02-24T05:18:02.342Z,0.00
2023-02-24T05:19:02.379Z,0.00
2023-02-24T05:20:02.807Z,0.00
2023-02-24T05:21:02.273Z,0.00
2023-02-24T05:22:02.695Z,0.00
2023-02-24T05:23:02.603Z,0.00
2023-02-24T05:24:02.811Z,0.00
2023-02-24T05:25:02.827Z,0.00
2023-02-24T05:26:02.413Z,0.00
2023-02-24T05:27:02.457Z,0.00
2023-02-24T05:28:02.564Z,0.00
2023-02-24T05:29:02.389Z,0.00
2023-02-24T05:30:02.556Z,0.00
2023-02-24T05:31:02.405Z,0.00
2023-02-24T05:32:02.781Z,0.00
2023-02-24T05:33:02.373Z,0.00
2023-02-24T05:34:02.448Z,0.00
2023-02-24T05:35:02.724Z,0.00
2023-02-24T05:36:02.305Z,0.00
2023-02-24T05:37:01.873Z,0.00
2023-02-24T05:38:02.279Z,0.00
2023-02-24T05:39:01.743Z,0.00
2023-02-24T05:40:01.759Z,0.00
2023-02-24T05:41:02.150Z,0.00
2023-02-24T05:42:02.178Z,0.00
2023-02-24T05:43:01.955Z,0.00
2023-02-24T05:44:01.879Z,0.00
2023-02-24T05:45:01.798Z,0.00
2023-02-24T05:46:01.871Z,0.00
2023-02-24T05:47:02.727Z,0.00
2023-02-24T05:48:02.343Z,0.00
2023-02-24T05:49:02.635Z,0.00
2023-02-24T05:50:02.705Z,0.00
2023-02-24T05:51:05.043Z,0.00
2023-02-24T05:52:02.785Z,0.00
2023-02-24T05:53:02.963Z,0.00
2023-02-24T05:54:03.021Z,0.00
2023-02-24T05:55:02.563Z,0.00
2023-02-24T05:56:02.570Z,0.00
2023-02-24T05:57:02.212Z,0.00
2023-02-24T05:58:01.840Z,0.00
2023-02-24T05:59:01.866Z,0.00
2023-02-24T06:00:01.921Z,0.00
2023-02-24T06:01:02.315Z,0.00
2023-02-24T06:02:03.333Z,4.00
2023-02-24T06:03:03.361Z,0.00
2023-02-24T06:04:03.144Z,0.00
2023-02-24T06:05:02.920Z,4.00
2023-02-24T06:06:03.426Z,4.00
2023-02-24T06:07:02.897Z,0.00
2023-02-24T06:08:03.011Z,4.00
2023-02-24T06:09:02.627Z,4.00
2023-02-24T06:10:02.581Z,4.00
2023-02-24T06:11:02.487Z,8.00
2023-02-24T06:12:03.168Z,8.00
2023-02-24T06:13:03.453Z,12.00
2023-02-24T06:14:03.278Z,16.00
2023-02-24T06:15:03.416Z,12.00
2023-02-24T06:16:02.989Z,16.00
2023-02-24T06:17:02.717Z,20.00
2023-02-24T06:18:02.890Z,32.00
2023-02-24T06:19:02.985Z,40.00
2023-02-24T06:20:02.907Z,52.00
2023-02-24T06:21:02.667Z,64.00
2023-02-24T06:22:03.365Z,76.00
2023-02-24T06:23:03.286Z,88.00
2023-02-24T06:24:03.006Z,100.00
2023-02-24T06:25:03.539Z,116.00
2023-02-24T06:26:03.144Z,144.00
2023-02-24T06:27:02.247Z,172.00
2023-02-24T06:28:02.247Z,188.00
2023-02-24T06:29:02.246Z,200.00
2023-02-24T06:30:02.339Z,212.00
2023-02-24T06:31:02.601Z,216.00
2023-02-24T06:32:02.838Z,224.00
2023-02-24T06:33:02.773Z,240.00
2023-02-24T06:34:02.787Z,272.00
2023-02-24T06:35:02.623Z,308.00
2023-02-24T06:36:02.618Z,332.00
2023-02-24T06:37:02.996Z,352.00
2023-02-24T06:38:02.930Z,384.00
2023-02-24T06:39:03.018Z,420.00
2023-02-24T06:40:02.734Z,460.00
2023-02-24T06:41:02.674Z,504.00
2023-02-24T06:42:03.217Z,552.00
2023-02-24T06:43:02.890Z,612.00
2023-02-24T06:44:02.786Z,668.00
2023-02-24T06:45:03.188Z,728.00
2023-02-24T06:46:03.567Z,796.00
2023-02-24T06:47:02.557Z,856.00
2023-02-24T06:48:02.706Z,912.00
2023-02-24T06:49:02.531Z,972.00
2023-02-24T06:50:02.430Z,1016.00
2023-02-24T06:51:02.475Z,1048.00
2023-02-24T06:52:03.132Z,1104.00
2023-02-24T06:53:03.326Z,1156.00
2023-02-24T06:54:03.606Z,1232.00
2023-02-24T06:55:03.605Z,1336.00
2023-02-24T06:56:03.525Z,1420.00
2023-02-24T06:57:02.788Z,1500.00
2023-02-24T06:58:03.149Z,1572.00
2023-02-24T06:59:02.477Z,1640.00
2023-02-24T07:00:02.751Z,1708.00
2023-02-24T07:01:02.804Z,1776.00
2023-02-24T07:02:02.336Z,1896.00
2023-02-24T07:03:02.254Z,1964.00
2023-02-24T07:04:02.111Z,2004.00
2023-02-24T07:05:01.857Z,2116.00
2023-02-24T07:06:02.023Z,2236.00
2023-02-24T07:07:02.592Z,2256.00
2023-02-24T07:08:02.370Z,2316.00
2023-02-24T07:09:02.800Z,2256.00
2023-02-24T07:10:02.440Z,2204.00
2023-02-24T07:11:02.413Z,2112.00
2023-02-24T07:12:02.929Z,2108.00
2023-02-24T07:13:03.012Z,2188.00
2023-02-24T07:14:03.068Z,2332.00
2023-02-24T07:15:02.925Z,2444.00
2023-02-24T07:16:02.753Z,2324.00
2023-02-24T07:17:02.426Z,2196.00
2023-02-24T07:18:02.659Z,2184.00
2023-02-24T07:19:02.252Z,2228.00
2023-02-24T07:20:02.338Z,2268.00
2023-02-24T07:21:02.878Z,2340.00
2023-02-24T07:22:02.830Z,2416.00
2023-02-24T07:23:02.770Z,2616.00
2023-02-24T07:24:02.193Z,2928.00
2023-02-24T07:25:02.272Z,3180.00
2023-02-24T07:26:02.307Z,3236.00
2023-02-24T07:27:02.145Z,3372.00
2023-02-24T07:28:01.891Z,3632.00
2023-02-24T07:29:01.688Z,3860.00
2023-02-24T07:30:01.633Z,4084.00
2023-02-24T07:31:01.724Z,4212.00
2023-02-24T07:32:02.644Z,4232.00
2023-02-24T07:33:02.459Z,4340.00
2023-02-24T07:34:01.830Z,4640.00
2023-02-24T07:35:02.095Z,4880.00
2023-02-24T07:36:02.264Z,4928.00
2023-02-24T07:37:02.087Z,4792.00
2023-02-24T07:38:02.528Z,4524.00
2023-02-24T07:39:02.061Z,4400.00
2023-02-24T07:40:02.275Z,4424.00
2023-02-24T07:41:02.445Z,4500.00
2023-02-24T07:42:02.200Z,4504.00
2023-02-24T07:43:02.469Z,4424.00
2023-02-24T07:44:02.643Z,4376.00
2023-02-24T07:45:02.592Z,4192.00
2023-02-24T07:46:02.343Z,3856.00
2023-02-24T07:47:02.387Z,3512.00
2023-02-24T07:48:02.885Z,3384.00
2023-02-24T07:49:02.432Z,3324.00
2023-02-24T07:50:02.837Z,3300.00
2023-02-24T07:51:02.538Z,3452.00
2023-02-24T07:52:01.896Z,3716.00
2023-02-24T07:53:01.402Z,3988.00
2023-02-24T07:54:01.401Z,4340.00
2023-02-24T07:55:01.715Z,4680.00
2023-02-24T07:56:02.028Z,4912.00
2023-02-24T07:57:01.742Z,5020.00
2023-02-24T07:58:01.535Z,5024.00
2023-02-24T07:59:01.789Z,4896.00
2023-02-24T08:00:02.042Z,4660.00
2023-02-24T08:01:02.027Z,4388.00
2023-02-24T08:02:03.073Z,4140.00
2023-02-24T08:03:02.526Z,4016.00
2023-02-24T08:04:03.004Z,3976.00
2023-02-24T08:05:03.024Z,3976.00
2023-02-24T08:06:03.093Z,4084.00
2023-02-24T08:07:03.207Z,4220.00
2023-02-24T08:08:02.734Z,4268.00
2023-02-24T08:09:02.687Z,4320.00
2023-02-24T08:10:02.584Z,4360.00
2023-02-24T08:11:02.702Z,4320.00
2023-02-24T08:12:02.569Z,4312.00
2023-02-24T08:13:02.333Z,4340.00
2023-02-24T08:14:02.329Z,4252.00
2023-02-24T08:15:02.590Z,4148.00
2023-02-24T08:16:02.696Z,4100.00
2023-02-24T08:17:02.243Z,3980.00
2023-02-24T08:18:02.147Z,3836.00
2023-02-24T08:19:02.162Z,3920.00
2023-02-24T08:20:02.277Z,4348.00
2023-02-24T08:21:02.093Z,4516.00
2023-02-24T08:22:02.213Z,4396.00
2023-02-24T08:23:02.879Z,4272.00
2023-02-24T08:24:02.487Z,4092.00
2023-02-24T08:25:02.310Z,3976.00
2023-02-24T08:26:02.768Z,4024.00
2023-02-24T08:27:02.815Z,3976.00
2023-02-24T08:28:08.075Z,4068.00
2023-02-24T08:29:02.858Z,4604.00
2023-02-24T08:30:02.865Z,5396.00
2023-02-24T08:31:02.559Z,5860.00
2023-02-24T08:32:02.288Z,6036.00
2023-02-24T08:33:01.834Z,6156.00
2023-02-24T08:34:02.398Z,6280.00
2023-02-24T08:35:02.242Z,6424.00
2023-02-24T08:36:02.766Z,6624.00
2023-02-24T08:37:02.560Z,6804.00
2023-02-24T08:38:02.542Z,6896.00
2023-02-24T08:39:02.393Z,6960.00
2023-02-24T08:40:02.415Z,6952.00
2023-02-24T08:41:02.826Z,6888.00
2023-02-24T08:42:02.356Z,6788.00
2023-02-24T08:43:02.535Z,6692.00
2023-02-24T08:44:02.840Z,6568.00
2023-02-24T08:45:02.420Z,6344.00
2023-02-24T08:46:02.396Z,6160.00
2023-02-24T08:47:02.491Z,6048.00
2023-02-24T08:48:02.041Z,5972.00
2023-02-24T08:49:02.385Z,5928.00
2023-02-24T08:50:01.937Z,5844.00
2023-02-24T08:51:02.366Z,5712.00
2023-02-24T08:52:02.663Z,5624.00
2023-02-24T08:53:02.537Z,5620.00
2023-02-24T08:54:02.422Z,5820.00
2023-02-24T08:55:02.264Z,5936.00
2023-02-24T08:56:02.848Z,6108.00
2023-02-24T08:57:03.237Z,6380.00
2023-02-24T08:58:02.907Z,6616.00
2023-02-24T08:59:02.464Z,6748.00
2023-02-24T09:00:02.952Z,6844.00
2023-02-24T09:01:02.645Z,6920.00
2023-02-24T09:02:04.989Z,7008.00
2023-02-24T09:03:02.483Z,6988.00
2023-02-24T09:04:02.593Z,6888.00
2023-02-24T09:05:02.151Z,6816.00
2023-02-24T09:06:02.402Z,6652.00
2023-02-24T09:07:11.274Z,6404.00
2023-02-24T09:08:02.472Z,6268.00
2023-02-24T09:09:02.310Z,6272.00
2023-02-24T09:10:02.188Z,6420.00
2023-02-24T09:11:02.728Z,6552.00
2023-02-24T09:12:02.672Z,6644.00
2023-02-24T09:13:02.772Z,6752.00
2023-02-24T09:14:02.205Z,6896.00
2023-02-24T09:15:02.275Z,6956.00
2023-02-24T09:16:02.567Z,6936.00
2023-02-24T09:17:02.859Z,6872.00
2023-02-24T09:18:02.705Z,6684.00
2023-02-24T09:19:02.576Z,6716.00
2023-02-24T09:20:02.825Z,6872.00
2023-02-24T09:21:02.588Z,6940.00
2023-02-24T09:22:05.931Z,6992.00
2023-02-24T09:23:02.821Z,7024.00
2023-02-24T09:24:03.011Z,7000.00
2023-02-24T09:25:02.541Z,6924.00
2023-02-24T09:26:02.939Z,7068.00
2023-02-24T09:27:03.149Z,7096.00
2023-02-24T09:28:02.564Z,6764.00
2023-02-24T09:29:02.612Z,6488.00
2023-02-24T09:30:02.767Z,6176.00
2023-02-24T09:31:02.527Z,5868.00
2023-02-24T09:32:02.239Z,5544.00
2023-02-24T09:33:02.399Z,5280.00
2023-02-24T09:34:02.351Z,5100.00
2023-02-24T09:35:02.262Z,4992.00
2023-02-24T09:36:02.275Z,4968.00
2023-02-24T09:37:02.632Z,4884.00
2023-02-24T09:38:02.153Z,4880.00
2023-02-24T09:39:02.458Z,5120.00
2023-02-24T09:40:02.343Z,5380.00
2023-02-24T09:41:13.788Z,5656.00
2023-02-24T09:42:02.341Z,5988.00
2023-02-24T09:43:02.016Z,6108.00
2023-02-24T09:44:02.053Z,6296.00
2023-02-24T09:45:02.016Z,6548.00
2023-02-24T09:46:02.720Z,6656.00
2023-02-24T09:47:02.965Z,6648.00
2023-02-24T09:48:02.701Z,6668.00
2023-02-24T09:49:03.170Z,6616.00
2023-02-24T09:50:02.598Z,6448.00
2023-02-24T09:51:04.756Z,6200.00
2023-02-24T09:52:02.386Z,5812.00
2023-02-24T09:53:10.760Z,5676.00
2023-02-24T09:54:02.491Z,5496.00
2023-02-24T09:55:02.173Z,5396.00
2023-02-24T09:56:02.148Z,5372.00
2023-02-24T09:57:02.758Z,5220.00
2023-02-24T09:58:02.544Z,5584.00
2023-02-24T09:59:02.580Z,6048.00
2023-02-24T10:00:02.746Z,6376.00
2023-02-24T10:01:02.565Z,6544.00
2023-02-24T10:02:02.610Z,6412.00
2023-02-24T10:03:02.495Z,6340.00
2023-02-24T10:04:06.218Z,6264.00
2023-02-24T10:05:02.031Z,6204.00
2023-02-24T10:06:02.232Z,6576.00
2023-02-24T10:07:02.437Z,7028.00
2023-02-24T10:08:02.180Z,6908.00
2023-02-24T10:09:02.120Z,5820.00
2023-02-24T10:10:02.697Z,5024.00
2023-02-24T10:11:02.702Z,4780.00
2023-02-24T10:12:01.731Z,4800.00
2023-02-24T10:13:01.602Z,5244.00
2023-02-24T10:14:04.655Z,5676.00
2023-02-24T10:15:01.639Z,5688.00
2023-02-24T10:17:02.137Z,6080.00
2023-02-24T10:18:02.185Z,6752.00
2023-02-24T10:19:01.912Z,6504.00
2023-02-24T10:20:02.242Z,5936.00
2023-02-24T10:21:02.241Z,5500.00
2023-02-24T10:22:01.974Z,5268.00
2023-02-24T10:23:01.589Z,5376.00
2023-02-24T10:24:02.282Z,5356.00
2023-02-24T10:25:01.741Z,5496.00
2023-02-24T10:26:06.660Z,5916.00
2023-02-24T10:28:02.020Z,7252.00
2023-02-24T10:29:02.228Z,8388.00
2023-02-24T10:30:02.143Z,8924.00
2023-02-24T10:31:02.267Z,9460.00
2023-02-24T10:32:02.865Z,9324.00
2023-02-24T10:33:02.480Z,8692.00
2023-02-24T10:34:02.439Z,8300.00
2023-02-24T10:35:02.259Z,7728.00
2023-02-24T10:36:02.433Z,7456.00
2023-02-24T10:37:02.369Z,7432.00
2023-02-24T10:38:02.559Z,6972.00
2023-02-24T10:39:02.370Z,6788.00
2023-02-24T10:40:02.600Z,6684.00
2023-02-24T10:41:02.641Z,7568.00
2023-02-24T10:42:02.306Z,7800.00
2023-02-24T10:43:02.352Z,7632.00
2023-02-24T10:44:02.327Z,8044.00
2023-02-24T10:45:03.105Z,8228.00
2023-02-24T10:46:02.190Z,8452.00
2023-02-24T10:47:02.580Z,10204.00
2023-02-24T10:48:02.128Z,11160.00
2023-02-24T10:49:02.717Z,11012.00
2023-02-24T10:50:02.667Z,10324.00
2023-02-24T10:51:02.333Z,9940.00
2023-02-24T10:52:01.827Z,9688.00
2023-02-24T10:53:02.075Z,10172.00
2023-02-24T10:54:01.622Z,10984.00
2023-02-24T10:55:01.936Z,11784.00
2023-02-24T10:56:02.134Z,12188.00
2023-02-24T10:57:02.205Z,11908.00
2023-02-24T10:58:02.334Z,11200.00
2023-02-24T10:59:02.236Z,11032.00
2023-02-24T11:00:02.383Z,11060.00
2023-02-24T11:01:02.152Z,11212.00
2023-02-24T11:02:02.604Z,11780.00
2023-02-24T11:03:02.578Z,12188.00
2023-02-24T11:04:02.915Z,12496.00
2023-02-24T11:05:02.752Z,12400.00
2023-02-24T11:06:02.584Z,11848.00
2023-02-24T11:07:02.629Z,11148.00
2023-02-24T11:08:02.504Z,10368.00
2023-02-24T11:09:02.831Z,10260.00
2023-02-24T11:10:02.779Z,10176.00
2023-02-24T11:11:02.715Z,10068.00
2023-02-24T11:12:03.306Z,9912.00
2023-02-24T11:13:09.402Z,9648.00
2023-02-24T11:14:03.484Z,9208.00
2023-02-24T11:15:03.428Z,8928.00
2023-02-24T11:16:03.057Z,9056.00
2023-02-24T11:17:02.571Z,8972.00
2023-02-24T11:18:02.421Z,8908.00
2023-02-24T11:19:02.578Z,8872.00
2023-02-24T11:20:02.770Z,8848.00
2023-02-24T11:21:02.413Z,8896.00
2023-02-24T11:22:02.721Z,8948.00
2023-02-24T11:23:03.276Z,9100.00
2023-02-24T11:24:02.992Z,9112.00
2023-02-24T11:25:03.280Z,9000.00
2023-02-24T11:26:02.897Z,8828.00
2023-02-24T11:27:04.397Z,8844.00
2023-02-24T11:28:02.705Z,9028.00
2023-02-24T11:29:02.168Z,9096.00
2023-02-24T11:30:02.687Z,9180.00
2023-02-24T11:31:02.519Z,9288.00
2023-02-24T11:32:03.151Z,8976.00
2023-02-24T11:33:02.678Z,8520.00
2023-02-24T11:34:02.618Z,7748.00
2023-02-24T11:35:02.985Z,6988.00
2023-02-24T11:36:02.821Z,6572.00
2023-02-24T11:37:03.089Z,6928.00
2023-02-24T11:38:02.973Z,7080.00
2023-02-24T11:39:17.137Z,6852.00
2023-02-24T11:40:03.076Z,6624.00
2023-02-24T11:41:02.829Z,6456.00
2023-02-24T11:42:02.764Z,6416.00
2023-02-24T11:43:02.454Z,6332.00
2023-02-24T11:44:02.180Z,6192.00
2023-02-24T11:45:02.262Z,5980.00
2023-02-24T11:46:02.304Z,6092.00
2023-02-24T11:47:02.980Z,6792.00
2023-02-24T11:48:02.581Z,6804.00
2023-02-24T11:49:03.114Z,6392.00
2023-02-24T11:50:04.954Z,6088.00
2023-02-24T11:51:02.890Z,5924.00
2023-02-24T11:52:03.220Z,5380.00
2023-02-24T11:53:03.053Z,5120.00
2023-02-24T11:54:02.857Z,5172.00
2023-02-24T11:55:03.275Z,5108.00
2023-02-24T11:56:02.913Z,4880.00
2023-02-24T11:57:02.592Z,4912.00
2023-02-24T11:58:02.452Z,4956.00
2023-02-24T11:59:02.266Z,4948.00
2023-02-24T12:00:02.880Z,5156.00
2023-02-24T12:01:02.675Z,5648.00
2023-02-24T12:02:02.707Z,5672.00
2023-02-24T12:03:04.156Z,5696.00
2023-02-24T12:04:02.465Z,5912.00
2023-02-24T12:05:02.866Z,5936.00
2023-02-24T12:06:02.679Z,6032.00
2023-02-24T12:07:02.923Z,6148.00
2023-02-24T12:08:02.447Z,6216.00
2023-02-24T12:09:02.630Z,6332.00
2023-02-24T12:10:14.436Z,6380.00
2023-02-24T12:11:02.466Z,6360.00
2023-02-24T12:12:02.320Z,6300.00
2023-02-24T12:13:02.361Z,6176.00
2023-02-24T12:14:02.065Z,6052.00
2023-02-24T12:15:02.063Z,5952.00
2023-02-24T12:16:02.299Z,5744.00
2023-02-24T12:17:02.533Z,5500.00
2023-02-24T12:18:02.440Z,5332.00
2023-02-24T12:19:02.541Z,5244.00
2023-02-24T12:20:02.577Z,5208.00
2023-02-24T12:21:02.058Z,5128.00
2023-02-24T12:22:02.809Z,4968.00
2023-02-24T12:23:02.673Z,4812.00
2023-02-24T12:24:02.781Z,4796.00
2023-02-24T12:25:02.708Z,4756.00
2023-02-24T12:26:02.339Z,4768.00
2023-02-24T12:27:02.378Z,4804.00
2023-02-24T12:28:01.833Z,4748.00
2023-02-24T12:29:02.351Z,4660.00
2023-02-24T12:30:01.956Z,4588.00
2023-02-24T12:31:01.854Z,4548.00
2023-02-24T12:32:02.611Z,4552.00
2023-02-24T12:33:01.973Z,4576.00
2023-02-24T12:34:02.389Z,4564.00
2023-02-24T12:35:02.386Z,4452.00
2023-02-24T12:36:02.033Z,4256.00
2023-02-24T12:37:02.703Z,4332.00
2023-02-24T12:38:02.559Z,4268.00
2023-02-24T12:39:02.212Z,4208.00
2023-02-24T12:40:02.505Z,4240.00
2023-02-24T12:41:02.594Z,4224.00
2023-02-24T12:42:01.502Z,4332.00